sensor_id;sensor_type;location;lat;lon;timestamp;P1;durP1;ratioP1;P2;durP2;ratioP2
22794;SDS011;11564;50.920;11.612;2023-08-06T00:00:14;1.47;;;1.37;;
22794;SDS011;11564;50.920;11.612;2023-08-06T00:02:39;2.07;;;1.40;;
22794;SDS011;11564;50.920;11.612;2023-08-06T00:05:05;2.80;;;1.80;;
22794;SDS011;11564;50.920;11.612;2023-08-06T00:07:31;1.73;;;1.23;;
22794;SDS011;11564;50.920;11.612;2023-08-06T00:09:57;1.53;;;1.43;;
22794;SDS011;11564;50.920;11.612;2023-08-06T00:12:22;2.07;;;1.70;;
22794;SDS011;11564;50.920;11.612;2023-08-06T00:14:51;1.70;;;1.60;;
22794;SDS011;11564;50.920;11.612;2023-08-06T00:17:18;2.07;;;1.60;;
22794;SDS011;11564;50.920;11.612;2023-08-06T00:19:44;2.80;;;1.30;;
22794;SDS011;11564;50.920;11.612;2023-08-06T00:22:09;8.20;;;1.40;;
22794;SDS011;11564;50.920;11.612;2023-08-06T00:24:35;1.60;;;1.50;;
22794;SDS011;11564;50.920;11.612;2023-08-06T00:27:01;1.50;;;1.40;;
22794;SDS011;11564;50.920;11.612;2023-08-06T00:29:27;3.33;;;1.47;;
22794;SDS011;11564;50.920;11.612;2023-08-06T00:31:53;1.97;;;1.70;;
22794;SDS011;11564;50.920;11.612;2023-08-06T00:34:19;3.00;;;1.67;;
22794;SDS011;11564;50.920;11.612;2023-08-06T00:36:44;2.60;;;1.47;;
22794;SDS011;11564;50.920;11.612;2023-08-06T00:39:10;1.53;;;1.43;;
22794;SDS011;11564;50.920;11.612;2023-08-06T00:41:36;2.10;;;1.90;;
22794;SDS011;11564;50.920;11.612;2023-08-06T00:44:02;5.10;;;2.27;;
22794;SDS011;11564;50.920;11.612;2023-08-06T00:46:28;2.90;;;1.93;;
22794;SDS011;11564;50.920;11.612;2023-08-06T00:48:53;1.77;;;1.67;;
22794;SDS011;11564;50.920;11.612;2023-08-06T00:51:20;2.60;;;1.97;;
22794;SDS011;11564;50.920;11.612;2023-08-06T00:53:47;2.07;;;1.97;;
22794;SDS011;11564;50.920;11.612;2023-08-06T00:56:15;1.63;;;1.50;;
22794;SDS011;11564;50.920;11.612;2023-08-06T00:58:41;2.90;;;2.07;;
22794;SDS011;11564;50.920;11.612;2023-08-06T01:01:07;2.00;;;1.90;;
22794;SDS011;11564;50.920;11.612;2023-08-06T01:03:32;7.60;;;2.03;;
22794;SDS011;11564;50.920;11.612;2023-08-06T01:05:58;1.90;;;1.80;;
22794;SDS011;11564;50.920;11.612;2023-08-06T01:13:46;2.80;;;1.73;;
22794;SDS011;11564;50.920;11.612;2023-08-06T01:16:18;1.97;;;1.70;;
22794;SDS011;11564;50.920;11.612;2023-08-06T01:18:46;2.40;;;2.23;;
22794;SDS011;11564;50.920;11.612;2023-08-06T01:21:14;2.00;;;1.90;;
22794;SDS011;11564;50.920;11.612;2023-08-06T01:23:41;5.30;;;2.37;;
22794;SDS011;11564;50.920;11.612;2023-08-06T01:31:27;1.90;;;1.80;;
22794;SDS011;11564;50.920;11.612;2023-08-06T01:33:58;2.10;;;2.00;;
22794;SDS011;11564;50.920;11.612;2023-08-06T01:36:25;2.40;;;2.30;;
22794;SDS011;11564;50.920;11.612;2023-08-06T01:38:53;2.23;;;2.03;;
22794;SDS011;11564;50.920;11.612;2023-08-06T01:41:19;2.10;;;2.00;;
22794;SDS011;11564;50.920;11.612;2023-08-06T01:43:44;2.03;;;1.83;;
22794;SDS011;11564;50.920;11.612;2023-08-06T01:46:10;1.93;;;1.80;;
22794;SDS011;11564;50.920;11.612;2023-08-06T01:48:35;2.47;;;2.20;;
22794;SDS011;11564;50.920;11.612;2023-08-06T01:51:03;2.53;;;2.20;;
22794;SDS011;11564;50.920;11.612;2023-08-06T01:53:30;3.10;;;1.97;;
22794;SDS011;11564;50.920;11.612;2023-08-06T01:55:56;2.23;;;2.03;;
22794;SDS011;11564;50.920;11.612;2023-08-06T01:58:22;3.53;;;2.23;;
22794;SDS011;11564;50.920;11.612;2023-08-06T02:00:48;2.00;;;1.80;;
22794;SDS011;11564;50.920;11.612;2023-08-06T02:03:13;2.60;;;2.47;;
22794;SDS011;11564;50.920;11.612;2023-08-06T02:05:39;2.67;;;2.07;;
22794;SDS011;11564;50.920;11.612;2023-08-06T02:08:05;2.30;;;2.20;;
22794;SDS011;11564;50.920;11.612;2023-08-06T02:10:31;10.77;;;2.47;;
22794;SDS011;11564;50.920;11.612;2023-08-06T02:12:56;2.30;;;2.20;;
22794;SDS011;11564;50.920;11.612;2023-08-06T02:15:22;9.80;;;4.73;;
22794;SDS011;11564;50.920;11.612;2023-08-06T02:17:47;2.70;;;2.60;;
22794;SDS011;11564;50.920;11.612;2023-08-06T02:20:13;2.37;;;2.17;;
22794;SDS011;11564;50.920;11.612;2023-08-06T02:22:38;2.60;;;2.50;;
22794;SDS011;11564;50.920;11.612;2023-08-06T02:25:04;2.70;;;2.50;;
22794;SDS011;11564;50.920;11.612;2023-08-06T02:27:30;2.93;;;2.27;;
22794;SDS011;11564;50.920;11.612;2023-08-06T02:29:55;3.80;;;2.40;;
22794;SDS011;11564;50.920;11.612;2023-08-06T02:32:21;2.00;;;1.90;;
22794;SDS011;11564;50.920;11.612;2023-08-06T02:34:47;2.03;;;1.93;;
22794;SDS011;11564;50.920;11.612;2023-08-06T02:37:12;4.90;;;2.03;;
22794;SDS011;11564;50.920;11.612;2023-08-06T02:39:38;2.93;;;2.10;;
22794;SDS011;11564;50.920;11.612;2023-08-06T02:42:07;3.13;;;1.90;;
22794;SDS011;11564;50.920;11.612;2023-08-06T02:44:32;4.80;;;2.23;;
22794;SDS011;11564;50.920;11.612;2023-08-06T02:46:59;2.37;;;2.27;;
22794;SDS011;11564;50.920;11.612;2023-08-06T02:49:24;2.67;;;2.50;;
22794;SDS011;11564;50.920;11.612;2023-08-06T02:51:50;2.73;;;2.27;;
22794;SDS011;11564;50.920;11.612;2023-08-06T02:54:16;8.23;;;2.60;;
22794;SDS011;11564;50.920;11.612;2023-08-06T02:56:43;3.37;;;3.07;;
22794;SDS011;11564;50.920;11.612;2023-08-06T02:59:10;3.13;;;2.57;;
22794;SDS011;11564;50.920;11.612;2023-08-06T03:01:36;3.00;;;2.00;;
22794;SDS011;11564;50.920;11.612;2023-08-06T03:04:01;2.73;;;2.53;;
22794;SDS011;11564;50.920;11.612;2023-08-06T03:06:27;3.17;;;2.67;;
22794;SDS011;11564;50.920;11.612;2023-08-06T03:08:53;2.93;;;2.70;;
22794;SDS011;11564;50.920;11.612;2023-08-06T03:11:19;4.20;;;2.20;;
22794;SDS011;11564;50.920;11.612;2023-08-06T03:13:44;2.93;;;2.60;;
22794;SDS011;11564;50.920;11.612;2023-08-06T03:16:10;2.23;;;2.03;;
22794;SDS011;11564;50.920;11.612;2023-08-06T03:18:35;3.83;;;2.30;;
22794;SDS011;11564;50.920;11.612;2023-08-06T03:21:01;3.23;;;2.90;;
22794;SDS011;11564;50.920;11.612;2023-08-06T03:23:26;2.30;;;2.20;;
22794;SDS011;11564;50.920;11.612;2023-08-06T03:25:52;2.10;;;1.90;;
22794;SDS011;11564;50.920;11.612;2023-08-06T03:28:18;2.90;;;2.67;;
22794;SDS011;11564;50.920;11.612;2023-08-06T03:30:43;2.30;;;2.20;;
22794;SDS011;11564;50.920;11.612;2023-08-06T03:33:09;2.67;;;2.47;;
22794;SDS011;11564;50.920;11.612;2023-08-06T03:35:35;2.20;;;2.10;;
22794;SDS011;11564;50.920;11.612;2023-08-06T03:38:00;3.40;;;2.40;;
22794;SDS011;11564;50.920;11.612;2023-08-06T03:40:26;2.30;;;2.10;;
22794;SDS011;11564;50.920;11.612;2023-08-06T03:42:52;2.30;;;2.10;;
22794;SDS011;11564;50.920;11.612;2023-08-06T03:45:17;2.83;;;2.60;;
22794;SDS011;11564;50.920;11.612;2023-08-06T03:47:43;2.43;;;2.23;;
22794;SDS011;11564;50.920;11.612;2023-08-06T03:50:08;3.73;;;2.10;;
22794;SDS011;11564;50.920;11.612;2023-08-06T03:52:35;2.77;;;2.43;;
22794;SDS011;11564;50.920;11.612;2023-08-06T03:55:00;2.10;;;2.00;;
22794;SDS011;11564;50.920;11.612;2023-08-06T03:57:26;2.80;;;2.40;;
22794;SDS011;11564;50.920;11.612;2023-08-06T03:59:51;4.27;;;2.17;;
22794;SDS011;11564;50.920;11.612;2023-08-06T04:02:17;2.93;;;2.40;;
22794;SDS011;11564;50.920;11.612;2023-08-06T04:04:42;3.47;;;2.43;;
22794;SDS011;11564;50.920;11.612;2023-08-06T04:07:08;2.63;;;2.43;;
22794;SDS011;11564;50.920;11.612;2023-08-06T04:09:34;2.30;;;2.20;;
22794;SDS011;11564;50.920;11.612;2023-08-06T04:12:15;3.20;;;2.70;;
22794;SDS011;11564;50.920;11.612;2023-08-06T04:14:41;1.93;;;1.83;;
22794;SDS011;11564;50.920;11.612;2023-08-06T04:17:06;2.33;;;2.20;;
22794;SDS011;11564;50.920;11.612;2023-08-06T04:19:32;2.90;;;2.70;;
22794;SDS011;11564;50.920;11.612;2023-08-06T04:21:57;1.77;;;1.67;;
22794;SDS011;11564;50.920;11.612;2023-08-06T04:24:23;2.53;;;2.30;;
22794;SDS011;11564;50.920;11.612;2023-08-06T04:26:48;3.80;;;2.23;;
22794;SDS011;11564;50.920;11.612;2023-08-06T04:29:14;2.97;;;2.67;;
22794;SDS011;11564;50.920;11.612;2023-08-06T04:31:40;4.73;;;2.60;;
22794;SDS011;11564;50.920;11.612;2023-08-06T04:34:05;6.70;;;2.13;;
22794;SDS011;11564;50.920;11.612;2023-08-06T04:36:32;3.20;;;2.83;;
22794;SDS011;11564;50.920;11.612;2023-08-06T04:38:58;4.83;;;2.40;;
22794;SDS011;11564;50.920;11.612;2023-08-06T04:41:24;3.10;;;2.90;;
22794;SDS011;11564;50.920;11.612;2023-08-06T04:43:49;2.30;;;2.20;;
22794;SDS011;11564;50.920;11.612;2023-08-06T04:46:15;3.13;;;2.80;;
22794;SDS011;11564;50.920;11.612;2023-08-06T04:48:40;2.60;;;2.40;;
22794;SDS011;11564;50.920;11.612;2023-08-06T04:51:06;2.70;;;2.50;;
22794;SDS011;11564;50.920;11.612;2023-08-06T04:53:32;4.90;;;2.90;;
22794;SDS011;11564;50.920;11.612;2023-08-06T04:55:57;2.40;;;2.30;;
22794;SDS011;11564;50.920;11.612;2023-08-06T04:58:23;2.93;;;2.80;;
22794;SDS011;11564;50.920;11.612;2023-08-06T05:00:48;3.13;;;2.43;;
22794;SDS011;11564;50.920;11.612;2023-08-06T05:03:14;3.60;;;2.67;;
22794;SDS011;11564;50.920;11.612;2023-08-06T05:05:40;3.03;;;2.83;;
22794;SDS011;11564;50.920;11.612;2023-08-06T05:08:06;2.50;;;2.30;;
22794;SDS011;11564;50.920;11.612;2023-08-06T05:10:32;3.37;;;3.07;;
22794;SDS011;11564;50.920;11.612;2023-08-06T05:12:58;3.17;;;2.97;;
22794;SDS011;11564;50.920;11.612;2023-08-06T05:15:23;2.67;;;2.47;;
22794;SDS011;11564;50.920;11.612;2023-08-06T05:17:50;3.20;;;3.00;;
22794;SDS011;11564;50.920;11.612;2023-08-06T05:20:16;4.67;;;2.97;;
22794;SDS011;11564;50.920;11.612;2023-08-06T05:22:42;3.43;;;3.17;;
22794;SDS011;11564;50.920;11.612;2023-08-06T05:25:08;2.57;;;2.37;;
22794;SDS011;11564;50.920;11.612;2023-08-06T05:27:34;2.80;;;2.60;;
22794;SDS011;11564;50.920;11.612;2023-08-06T05:29:59;2.83;;;2.63;;
22794;SDS011;11564;50.920;11.612;2023-08-06T05:32:25;2.63;;;2.43;;
22794;SDS011;11564;50.920;11.612;2023-08-06T05:34:50;2.93;;;2.40;;
22794;SDS011;11564;50.920;11.612;2023-08-06T05:37:16;2.60;;;2.40;;
22794;SDS011;11564;50.920;11.612;2023-08-06T05:39:42;2.53;;;2.30;;
22794;SDS011;11564;50.920;11.612;2023-08-06T05:42:07;7.03;;;2.60;;
22794;SDS011;11564;50.920;11.612;2023-08-06T05:44:33;2.60;;;2.40;;
22794;SDS011;11564;50.920;11.612;2023-08-06T05:46:58;2.37;;;2.27;;
22794;SDS011;11564;50.920;11.612;2023-08-06T05:49:24;3.70;;;2.87;;
22794;SDS011;11564;50.920;11.612;2023-08-06T05:51:50;2.40;;;2.20;;
22794;SDS011;11564;50.920;11.612;2023-08-06T05:54:18;4.50;;;2.70;;
22794;SDS011;11564;50.920;11.612;2023-08-06T05:56:43;2.90;;;2.70;;
22794;SDS011;11564;50.920;11.612;2023-08-06T05:59:09;5.57;;;2.73;;
22794;SDS011;11564;50.920;11.612;2023-08-06T06:01:35;2.63;;;2.40;;
22794;SDS011;11564;50.920;11.612;2023-08-06T06:04:00;3.30;;;3.00;;
22794;SDS011;11564;50.920;11.612;2023-08-06T06:06:26;3.20;;;2.90;;
22794;SDS011;11564;50.920;11.612;2023-08-06T06:08:51;2.60;;;2.40;;
22794;SDS011;11564;50.920;11.612;2023-08-06T06:11:17;2.73;;;1.90;;
22794;SDS011;11564;50.920;11.612;2023-08-06T06:13:46;2.33;;;2.13;;
22794;SDS011;11564;50.920;11.612;2023-08-06T06:16:14;2.80;;;2.37;;
22794;SDS011;11564;50.920;11.612;2023-08-06T06:18:39;2.33;;;2.23;;
22794;SDS011;11564;50.920;11.612;2023-08-06T06:21:05;2.47;;;2.30;;
22794;SDS011;11564;50.920;11.612;2023-08-06T06:23:30;2.70;;;2.50;;
22794;SDS011;11564;50.920;11.612;2023-08-06T06:25:56;2.40;;;2.17;;
22794;SDS011;11564;50.920;11.612;2023-08-06T06:28:21;3.40;;;2.53;;
22794;SDS011;11564;50.920;11.612;2023-08-06T06:30:47;2.10;;;2.00;;
22794;SDS011;11564;50.920;11.612;2023-08-06T06:33:13;4.40;;;2.37;;
22794;SDS011;11564;50.920;11.612;2023-08-06T06:35:38;2.57;;;2.37;;
22794;SDS011;11564;50.920;11.612;2023-08-06T06:38:04;2.07;;;1.87;;
22794;SDS011;11564;50.920;11.612;2023-08-06T06:40:30;2.83;;;2.10;;
22794;SDS011;11564;50.920;11.612;2023-08-06T06:42:55;2.77;;;2.57;;
22794;SDS011;11564;50.920;11.612;2023-08-06T06:45:21;2.00;;;1.90;;
22794;SDS011;11564;50.920;11.612;2023-08-06T06:47:46;6.50;;;2.03;;
22794;SDS011;11564;50.920;11.612;2023-08-06T06:50:12;5.43;;;2.43;;
22794;SDS011;11564;50.920;11.612;2023-08-06T06:52:38;2.27;;;2.17;;
22794;SDS011;11564;50.920;11.612;2023-08-06T06:55:04;2.23;;;2.03;;
22794;SDS011;11564;50.920;11.612;2023-08-06T06:57:30;3.10;;;1.70;;
22794;SDS011;11564;50.920;11.612;2023-08-06T06:59:55;2.87;;;2.60;;
22794;SDS011;11564;50.920;11.612;2023-08-06T07:02:21;2.40;;;2.20;;
22794;SDS011;11564;50.920;11.612;2023-08-06T07:04:46;4.07;;;2.03;;
22794;SDS011;11564;50.920;11.612;2023-08-06T07:07:12;6.43;;;1.80;;
22794;SDS011;11564;50.920;11.612;2023-08-06T07:09:38;6.23;;;2.10;;
22794;SDS011;11564;50.920;11.612;2023-08-06T07:12:04;6.43;;;2.13;;
22794;SDS011;11564;50.920;11.612;2023-08-06T07:14:30;2.00;;;1.90;;
22794;SDS011;11564;50.920;11.612;2023-08-06T07:16:55;2.43;;;2.00;;
22794;SDS011;11564;50.920;11.612;2023-08-06T07:19:21;2.90;;;1.97;;
22794;SDS011;11564;50.920;11.612;2023-08-06T07:21:46;2.50;;;1.57;;
22794;SDS011;11564;50.920;11.612;2023-08-06T07:24:12;2.20;;;2.10;;
22794;SDS011;11564;50.920;11.612;2023-08-06T07:26:39;1.73;;;1.63;;
22794;SDS011;11564;50.920;11.612;2023-08-06T07:29:04;1.93;;;1.83;;
22794;SDS011;11564;50.920;11.612;2023-08-06T07:31:30;2.93;;;1.93;;
22794;SDS011;11564;50.920;11.612;2023-08-06T07:33:55;2.47;;;1.90;;
22794;SDS011;11564;50.920;11.612;2023-08-06T07:36:21;1.87;;;1.77;;
22794;SDS011;11564;50.920;11.612;2023-08-06T07:38:47;2.00;;;1.80;;
22794;SDS011;11564;50.920;11.612;2023-08-06T07:41:16;2.33;;;1.60;;
22794;SDS011;11564;50.920;11.612;2023-08-06T07:43:42;4.13;;;1.90;;
22794;SDS011;11564;50.920;11.612;2023-08-06T07:46:07;2.93;;;1.93;;
22794;SDS011;11564;50.920;11.612;2023-08-06T07:48:33;1.80;;;1.60;;
22794;SDS011;11564;50.920;11.612;2023-08-06T07:50:59;2.07;;;1.97;;
22794;SDS011;11564;50.920;11.612;2023-08-06T07:53:25;1.80;;;1.70;;
22794;SDS011;11564;50.920;11.612;2023-08-06T07:55:57;3.50;;;1.80;;
22794;SDS011;11564;50.920;11.612;2023-08-06T07:58:23;3.47;;;2.20;;
22794;SDS011;11564;50.920;11.612;2023-08-06T08:00:49;1.90;;;1.80;;
22794;SDS011;11564;50.920;11.612;2023-08-06T08:03:15;2.37;;;2.17;;
22794;SDS011;11564;50.920;11.612;2023-08-06T08:05:42;2.60;;;1.53;;
22794;SDS011;11564;50.920;11.612;2023-08-06T08:08:08;4.20;;;2.00;;
22794;SDS011;11564;50.920;11.612;2023-08-06T08:10:34;1.97;;;1.87;;
22794;SDS011;11564;50.920;11.612;2023-08-06T08:13:04;2.10;;;2.00;;
22794;SDS011;11564;50.920;11.612;2023-08-06T08:15:31;3.50;;;2.13;;
22794;SDS011;11564;50.920;11.612;2023-08-06T08:17:57;3.00;;;1.77;;
22794;SDS011;11564;50.920;11.612;2023-08-06T08:20:23;2.00;;;1.90;;
22794;SDS011;11564;50.920;11.612;2023-08-06T08:22:49;1.93;;;1.73;;
22794;SDS011;11564;50.920;11.612;2023-08-06T08:25:15;4.17;;;1.80;;
22794;SDS011;11564;50.920;11.612;2023-08-06T08:27:41;4.17;;;1.70;;
22794;SDS011;11564;50.920;11.612;2023-08-06T08:30:07;2.27;;;2.07;;
22794;SDS011;11564;50.920;11.612;2023-08-06T08:32:33;2.80;;;1.90;;
22794;SDS011;11564;50.920;11.612;2023-08-06T08:34:58;2.27;;;2.17;;
22794;SDS011;11564;50.920;11.612;2023-08-06T08:37:24;3.03;;;1.90;;
22794;SDS011;11564;50.920;11.612;2023-08-06T08:39:50;3.10;;;2.03;;
22794;SDS011;11564;50.920;11.612;2023-08-06T08:42:15;1.77;;;1.60;;
22794;SDS011;11564;50.920;11.612;2023-08-06T08:44:44;2.20;;;1.93;;
22794;SDS011;11564;50.920;11.612;2023-08-06T08:47:10;2.80;;;1.97;;
22794;SDS011;11564;50.920;11.612;2023-08-06T08:49:36;10.13;;;2.13;;
22794;SDS011;11564;50.920;11.612;2023-08-06T08:52:02;6.77;;;1.70;;
22794;SDS011;11564;50.920;11.612;2023-08-06T08:54:33;3.27;;;1.90;;
22794;SDS011;11564;50.920;11.612;2023-08-06T08:57:00;1.80;;;1.43;;
22794;SDS011;11564;50.920;11.612;2023-08-06T08:59:26;2.43;;;2.00;;
22794;SDS011;11564;50.920;11.612;2023-08-06T09:01:52;7.63;;;1.90;;
22794;SDS011;11564;50.920;11.612;2023-08-06T09:04:19;1.80;;;1.70;;
22794;SDS011;11564;50.920;11.612;2023-08-06T09:06:47;1.93;;;1.73;;
22794;SDS011;11564;50.920;11.612;2023-08-06T09:09:16;1.47;;;1.37;;
22794;SDS011;11564;50.920;11.612;2023-08-06T09:11:49;4.10;;;1.70;;
22794;SDS011;11564;50.920;11.612;2023-08-06T09:14:16;1.50;;;1.40;;
22794;SDS011;11564;50.920;11.612;2023-08-06T09:16:42;2.57;;;1.60;;
22794;SDS011;11564;50.920;11.612;2023-08-06T09:19:11;3.20;;;1.80;;
22794;SDS011;11564;50.920;11.612;2023-08-06T09:21:40;4.90;;;1.50;;
22794;SDS011;11564;50.920;11.612;2023-08-06T09:24:07;7.23;;;1.77;;
22794;SDS011;11564;50.920;11.612;2023-08-06T09:26:37;3.90;;;1.83;;
22794;SDS011;11564;50.920;11.612;2023-08-06T09:29:07;1.63;;;1.40;;
22794;SDS011;11564;50.920;11.612;2023-08-06T09:31:42;2.67;;;1.80;;
22794;SDS011;11564;50.920;11.612;2023-08-06T09:34:16;2.03;;;1.93;;
22794;SDS011;11564;50.920;11.612;2023-08-06T09:36:53;2.23;;;1.60;;
22794;SDS011;11564;50.920;11.612;2023-08-06T09:39:20;2.13;;;1.80;;
22794;SDS011;11564;50.920;11.612;2023-08-06T09:41:47;2.23;;;1.80;;
22794;SDS011;11564;50.920;11.612;2023-08-06T09:44:17;5.00;;;2.13;;
22794;SDS011;11564;50.920;11.612;2023-08-06T09:46:50;4.17;;;2.53;;
22794;SDS011;11564;50.920;11.612;2023-08-06T09:49:18;1.53;;;1.43;;
22794;SDS011;11564;50.920;11.612;2023-08-06T09:51:44;2.00;;;1.90;;
22794;SDS011;11564;50.920;11.612;2023-08-06T09:54:15;4.97;;;1.60;;
22794;SDS011;11564;50.920;11.612;2023-08-06T09:56:41;2.07;;;1.87;;
22794;SDS011;11564;50.920;11.612;2023-08-06T09:59:08;1.77;;;1.67;;
22794;SDS011;11564;50.920;11.612;2023-08-06T10:01:35;7.13;;;2.07;;
22794;SDS011;11564;50.920;11.612;2023-08-06T10:04:01;3.93;;;1.67;;
22794;SDS011;11564;50.920;11.612;2023-08-06T10:06:29;1.63;;;1.53;;
22794;SDS011;11564;50.920;11.612;2023-08-06T10:08:55;22.40;;;2.13;;
22794;SDS011;11564;50.920;11.612;2023-08-06T10:11:24;2.00;;;1.90;;
22794;SDS011;11564;50.920;11.612;2023-08-06T10:13:53;2.00;;;1.80;;
22794;SDS011;11564;50.920;11.612;2023-08-06T10:16:35;1.70;;;1.60;;
22794;SDS011;11564;50.920;11.612;2023-08-06T10:19:03;1.40;;;1.30;;
22794;SDS011;11564;50.920;11.612;2023-08-06T10:21:30;2.20;;;1.97;;
22794;SDS011;11564;50.920;11.612;2023-08-06T10:23:57;4.50;;;2.47;;
22794;SDS011;11564;50.920;11.612;2023-08-06T10:26:26;3.93;;;3.00;;
22794;SDS011;11564;50.920;11.612;2023-08-06T10:28:55;8.30;;;2.17;;
22794;SDS011;11564;50.920;11.612;2023-08-06T10:34:19;1.90;;;1.60;;
22794;SDS011;11564;50.920;11.612;2023-08-06T10:36:44;3.67;;;1.80;;
22794;SDS011;11564;50.920;11.612;2023-08-06T10:39:13;1.80;;;1.70;;
22794;SDS011;11564;50.920;11.612;2023-08-06T10:41:39;4.67;;;1.80;;
22794;SDS011;11564;50.920;11.612;2023-08-06T10:44:08;2.10;;;1.90;;
22794;SDS011;11564;50.920;11.612;2023-08-06T10:46:35;3.33;;;1.83;;
22794;SDS011;11564;50.920;11.612;2023-08-06T10:49:02;1.70;;;1.60;;
22794;SDS011;11564;50.920;11.612;2023-08-06T10:51:28;1.93;;;1.63;;
22794;SDS011;11564;50.920;11.612;2023-08-06T10:53:54;3.03;;;1.80;;
22794;SDS011;11564;50.920;11.612;2023-08-06T10:56:21;2.30;;;2.20;;
22794;SDS011;11564;50.920;11.612;2023-08-06T10:58:49;1.50;;;1.40;;
22794;SDS011;11564;50.920;11.612;2023-08-06T11:01:15;2.10;;;1.90;;
22794;SDS011;11564;50.920;11.612;2023-08-06T11:03:42;3.73;;;2.17;;
22794;SDS011;11564;50.920;11.612;2023-08-06T11:06:09;3.90;;;2.07;;
22794;SDS011;11564;50.920;11.612;2023-08-06T11:08:36;1.73;;;1.63;;
22794;SDS011;11564;50.920;11.612;2023-08-06T11:11:12;1.60;;;1.50;;
22794;SDS011;11564;50.920;11.612;2023-08-06T11:13:40;4.00;;;1.93;;
22794;SDS011;11564;50.920;11.612;2023-08-06T11:16:06;2.73;;;2.13;;
22794;SDS011;11564;50.920;11.612;2023-08-06T11:18:34;1.83;;;1.73;;
22794;SDS011;11564;50.920;11.612;2023-08-06T11:21:00;1.63;;;1.53;;
22794;SDS011;11564;50.920;11.612;2023-08-06T11:23:27;1.80;;;1.70;;
22794;SDS011;11564;50.920;11.612;2023-08-06T11:25:56;1.63;;;1.50;;
22794;SDS011;11564;50.920;11.612;2023-08-06T11:28:22;1.97;;;1.50;;
22794;SDS011;11564;50.920;11.612;2023-08-06T11:30:49;3.27;;;1.83;;
22794;SDS011;11564;50.920;11.612;2023-08-06T11:33:21;2.00;;;1.90;;
22794;SDS011;11564;50.920;11.612;2023-08-06T11:35:51;1.30;;;1.20;;
22794;SDS011;11564;50.920;11.612;2023-08-06T11:38:17;1.60;;;1.50;;
22794;SDS011;11564;50.920;11.612;2023-08-06T11:40:50;2.90;;;1.40;;
22794;SDS011;11564;50.920;11.612;2023-08-06T11:43:16;1.67;;;1.50;;
22794;SDS011;11564;50.920;11.612;2023-08-06T11:45:43;1.70;;;1.40;;
22794;SDS011;11564;50.920;11.612;2023-08-06T11:48:09;1.70;;;1.60;;
22794;SDS011;11564;50.920;11.612;2023-08-06T11:50:38;2.40;;;1.90;;
22794;SDS011;11564;50.920;11.612;2023-08-06T11:53:04;1.60;;;1.50;;
22794;SDS011;11564;50.920;11.612;2023-08-06T11:55:30;1.87;;;1.40;;
22794;SDS011;11564;50.920;11.612;2023-08-06T11:57:56;3.10;;;1.60;;
22794;SDS011;11564;50.920;11.612;2023-08-06T12:00:23;1.87;;;1.20;;
22794;SDS011;11564;50.920;11.612;2023-08-06T12:02:50;1.60;;;1.50;;
22794;SDS011;11564;50.920;11.612;2023-08-06T12:07:48;2.07;;;1.87;;
22794;SDS011;11564;50.920;11.612;2023-08-06T12:10:15;2.00;;;1.60;;
22794;SDS011;11564;50.920;11.612;2023-08-06T12:12:42;2.43;;;1.73;;
22794;SDS011;11564;50.920;11.612;2023-08-06T12:15:08;1.47;;;1.37;;
22794;SDS011;11564;50.920;11.612;2023-08-06T12:17:35;2.37;;;1.50;;
22794;SDS011;11564;50.920;11.612;2023-08-06T12:20:02;1.60;;;1.50;;
22794;SDS011;11564;50.920;11.612;2023-08-06T12:22:29;2.60;;;1.47;;
22794;SDS011;11564;50.920;11.612;2023-08-06T12:24:59;1.60;;;1.50;;
22794;SDS011;11564;50.920;11.612;2023-08-06T12:27:26;6.33;;;1.47;;
22794;SDS011;11564;50.920;11.612;2023-08-06T12:29:51;2.20;;;1.70;;
22794;SDS011;11564;50.920;11.612;2023-08-06T12:32:17;1.60;;;1.50;;
22794;SDS011;11564;50.920;11.612;2023-08-06T12:34:44;2.47;;;1.50;;
22794;SDS011;11564;50.920;11.612;2023-08-06T12:37:10;2.47;;;1.80;;
22794;SDS011;11564;50.920;11.612;2023-08-06T12:39:35;4.80;;;2.13;;
22794;SDS011;11564;50.920;11.612;2023-08-06T12:42:02;3.03;;;2.03;;
22794;SDS011;11564;50.920;11.612;2023-08-06T12:44:30;5.83;;;2.77;;
22794;SDS011;11564;50.920;11.612;2023-08-06T12:46:56;6.23;;;2.63;;
22794;SDS011;11564;50.920;11.612;2023-08-06T12:49:22;14.53;;;3.10;;
22794;SDS011;11564;50.920;11.612;2023-08-06T12:51:49;5.57;;;2.97;;
22794;SDS011;11564;50.920;11.612;2023-08-06T12:54:16;13.40;;;4.07;;
22794;SDS011;11564;50.920;11.612;2023-08-06T12:56:43;18.13;;;4.30;;
22794;SDS011;11564;50.920;11.612;2023-08-06T12:59:09;11.07;;;3.03;;
22794;SDS011;11564;50.920;11.612;2023-08-06T13:01:35;5.00;;;2.50;;
22794;SDS011;11564;50.920;11.612;2023-08-06T13:04:02;2.67;;;2.07;;
22794;SDS011;11564;50.920;11.612;2023-08-06T13:06:27;5.03;;;2.20;;
22794;SDS011;11564;50.920;11.612;2023-08-06T13:08:53;6.50;;;1.77;;
22794;SDS011;11564;50.920;11.612;2023-08-06T13:11:19;4.80;;;2.10;;
22794;SDS011;11564;50.920;11.612;2023-08-06T13:13:44;5.77;;;2.50;;
22794;SDS011;11564;50.920;11.612;2023-08-06T13:16:10;12.63;;;2.20;;
22794;SDS011;11564;50.920;11.612;2023-08-06T13:18:35;2.50;;;1.77;;
22794;SDS011;11564;50.920;11.612;2023-08-06T13:21:01;2.13;;;1.80;;
22794;SDS011;11564;50.920;11.612;2023-08-06T13:23:27;2.53;;;1.73;;
22794;SDS011;11564;50.920;11.612;2023-08-06T13:25:53;3.53;;;1.40;;
22794;SDS011;11564;50.920;11.612;2023-08-06T13:28:18;1.20;;;1.00;;
22794;SDS011;11564;50.920;11.612;2023-08-06T13:30:44;1.77;;;1.47;;
22794;SDS011;11564;50.920;11.612;2023-08-06T13:33:11;2.40;;;1.53;;
22794;SDS011;11564;50.920;11.612;2023-08-06T13:35:37;1.93;;;1.03;;
22794;SDS011;11564;50.920;11.612;2023-08-06T13:38:03;2.03;;;1.50;;
22794;SDS011;11564;50.920;11.612;2023-08-06T13:40:29;2.87;;;1.40;;
22794;SDS011;11564;50.920;11.612;2023-08-06T13:42:57;2.63;;;1.50;;
22794;SDS011;11564;50.920;11.612;2023-08-06T13:45:22;1.63;;;1.50;;
22794;SDS011;11564;50.920;11.612;2023-08-06T13:47:48;6.30;;;2.47;;
22794;SDS011;11564;50.920;11.612;2023-08-06T13:50:13;1.60;;;1.50;;
22794;SDS011;11564;50.920;11.612;2023-08-06T13:52:39;3.37;;;1.80;;
22794;SDS011;11564;50.920;11.612;2023-08-06T13:55:05;1.73;;;1.63;;
22794;SDS011;11564;50.920;11.612;2023-08-06T13:57:31;3.53;;;1.60;;
22794;SDS011;11564;50.920;11.612;2023-08-06T13:59:57;3.17;;;1.63;;
22794;SDS011;11564;50.920;11.612;2023-08-06T14:02:23;4.07;;;2.53;;
22794;SDS011;11564;50.920;11.612;2023-08-06T14:04:49;4.03;;;1.93;;
22794;SDS011;11564;50.920;11.612;2023-08-06T14:07:14;2.93;;;1.87;;
22794;SDS011;11564;50.920;11.612;2023-08-06T14:09:40;6.77;;;2.70;;
22794;SDS011;11564;50.920;11.612;2023-08-06T14:12:07;13.83;;;2.97;;
22794;SDS011;11564;50.920;11.612;2023-08-06T14:14:32;4.10;;;2.20;;
22794;SDS011;11564;50.920;11.612;2023-08-06T14:16:58;6.67;;;3.00;;
22794;SDS011;11564;50.920;11.612;2023-08-06T14:19:24;3.97;;;2.40;;
22794;SDS011;11564;50.920;11.612;2023-08-06T14:21:50;3.67;;;2.10;;
22794;SDS011;11564;50.920;11.612;2023-08-06T14:24:15;2.57;;;2.10;;
22794;SDS011;11564;50.920;11.612;2023-08-06T14:26:41;6.10;;;2.33;;
22794;SDS011;11564;50.920;11.612;2023-08-06T14:29:07;3.10;;;2.23;;
22794;SDS011;11564;50.920;11.612;2023-08-06T14:31:32;7.20;;;2.00;;
22794;SDS011;11564;50.920;11.612;2023-08-06T14:33:58;2.10;;;2.00;;
22794;SDS011;11564;50.920;11.612;2023-08-06T14:36:24;6.80;;;1.97;;
22794;SDS011;11564;50.920;11.612;2023-08-06T14:38:49;1.97;;;1.67;;
22794;SDS011;11564;50.920;11.612;2023-08-06T14:41:15;1.97;;;1.80;;
22794;SDS011;11564;50.920;11.612;2023-08-06T14:43:40;1.70;;;1.60;;